MET'MAP v2.0
soon released !

Expected late october,
this new version will be
more efficient, smarter,
and hosted on a brand new
server x3 powerfull...
...and still free !


Not compatible ?
Try the mobile version !

LOG IN : | Subscribe | Disclaimer | Who is Orbifly ? |
ICAO code :

TAF - LDSP Split - 19 Feb 2020 21:07 UTC - Data Source NOAA   


- Airport Elevation : 79 ft
- IATA code : SPU
- No reported NOTAMs.


LDSP - Split

Latest METAR recorded : 2015/08/11 08:00 LDSP 110800Z 25008KT 210V280 9999 FEW037 28/19 Q1013 NOSIG
TAF TAF LDSP
Valid from the 19 at 18:00 until the 20 at 18:00 UTC


191725Z 1918/2018 35006KT 9999 SCT050 TX15/2012Z TN05/2006Z
PROB30
TEMPO 1918/1922 31015KT TSRA FEW030CB BKN035
BECMG 1923/2001 05012KT
PROB30
TEMPO 2001/2009 05018G30KT
BECMG 2016/2018 33006KT

Source NOAA


MET'MAP, your aeronautical weather chart ! - Copyright ORBIFLY December 2007

Programming & Development : Alexandra Zaïnal
Co-Developer : Marc-Olivier Méhu
Technical & hardware support : Manuel Goepfert
Concept & Financing : Baudouin d'Aumeries